Miri, Malaysia
Current Conditions -  °F | °C
As of 8:00 PM on Wednesday 22 Oct 2014 (Local Time) from WBGR Reporting Station
Broken Clouds Broken Clouds  
Wind Chill: 82°   Ceiling: 15000
Heat Index: 89°   Visibility: 6mi
Dew Point: 75°   Wind: 1mph
Humidity: 79%   Direction: 220°SW
Pressure: 29.83"   Gusts: NA
Location:  4.4°N, 113.97°E
Report Text: WBGR 221200Z 22001KT 9999 SCT014 FEW015CB BKN150 28/24 Q1010
Loading
Personal Weather Stations






























Interactive Weather Map
Tropical Storm Tracking
New forecast layout! Learn more

10-Day Weather Forecast

Advertisements
Track Severe Weather on mobile